createdAt,value
2022-10-12T00:00:44.385Z,87.27
2022-10-12T00:01:44.443Z,87.08
2022-10-12T00:02:44.392Z,87.08
2022-10-12T00:03:44.380Z,87.08
2022-10-12T00:04:44.393Z,86.90
2022-10-12T00:05:44.358Z,87.08
2022-10-12T00:06:44.350Z,87.08
2022-10-12T00:07:44.361Z,86.80
2022-10-12T00:08:44.337Z,87.08
2022-10-12T00:09:44.341Z,87.18
2022-10-12T00:10:44.343Z,87.46
2022-10-12T00:11:44.407Z,87.08
2022-10-12T00:12:44.340Z,87.56
2022-10-12T00:13:44.321Z,87.56
2022-10-12T00:14:44.324Z,87.46
2022-10-12T00:15:44.332Z,87.37
2022-10-12T00:16:44.302Z,87.65
2022-10-12T00:17:44.308Z,87.56
2022-10-12T00:18:44.293Z,87.65
2022-10-12T00:19:44.313Z,87.37
2022-10-12T00:20:44.293Z,87.27
2022-10-12T00:21:44.307Z,87.46
2022-10-12T00:22:44.271Z,87.46
2022-10-12T00:23:44.264Z,87.37
2022-10-12T00:24:44.274Z,87.27
2022-10-12T00:25:44.269Z,87.18
2022-10-12T00:26:44.249Z,88.13
2022-10-12T00:27:44.277Z,87.75
2022-10-12T00:28:44.323Z,87.56
2022-10-12T00:29:44.271Z,87.75
2022-10-12T00:30:44.224Z,87.94
2022-10-12T00:31:44.234Z,87.56
2022-10-12T00:32:44.234Z,87.85
2022-10-12T00:33:44.221Z,87.65
2022-10-12T00:34:44.218Z,87.56
2022-10-12T00:35:44.220Z,87.75
2022-10-12T00:36:44.217Z,87.85
2022-10-12T00:37:44.215Z,88.04
2022-10-12T00:38:44.182Z,87.75
2022-10-12T00:39:44.188Z,87.75
2022-10-12T00:40:44.195Z,87.94
2022-10-12T00:41:44.177Z,88.13
2022-10-12T00:42:44.163Z,87.85
2022-10-12T00:43:44.162Z,87.37
2022-10-12T00:44:44.178Z,87.18
2022-10-12T00:45:44.158Z,87.37
2022-10-12T00:46:44.158Z,87.56
2022-10-12T00:47:44.147Z,87.46
2022-10-12T00:48:44.137Z,87.65
2022-10-12T00:49:44.137Z,87.08
2022-10-12T00:50:44.122Z,87.56
2022-10-12T00:51:44.144Z,87.56
2022-10-12T00:52:44.112Z,87.37
2022-10-12T00:53:44.124Z,87.37
2022-10-12T00:54:44.103Z,87.56
2022-10-12T00:55:44.114Z,87.46
2022-10-12T00:56:44.112Z,87.46
2022-10-12T00:57:47.079Z,87.27
2022-10-12T00:58:44.090Z,87.27
2022-10-12T00:59:44.082Z,87.37
2022-10-12T01:00:44.124Z,87.46
2022-10-12T01:01:44.072Z,87.46
2022-10-12T01:02:44.123Z,87.52
2022-10-12T01:03:44.092Z,87.08
2022-10-12T01:04:44.059Z,87.52
2022-10-12T01:05:44.060Z,87.56
2022-10-12T01:06:44.045Z,87.71
2022-10-12T01:07:44.051Z,87.71
2022-10-12T01:08:44.047Z,87.71
2022-10-12T01:09:44.040Z,87.32
2022-10-12T01:10:44.042Z,87.27
2022-10-12T01:11:44.024Z,87.37
2022-10-12T01:12:44.020Z,87.90
2022-10-12T01:13:44.017Z,87.71
2022-10-12T01:14:44.005Z,87.61
2022-10-12T01:15:44.008Z,87.90
2022-10-12T01:16:43.998Z,87.90
2022-10-12T01:17:44.017Z,87.32
2022-10-12T01:18:44.000Z,87.90
2022-10-12T01:19:43.980Z,87.90
2022-10-12T01:20:43.976Z,87.71
2022-10-12T01:21:43.978Z,87.71
2022-10-12T01:22:43.973Z,87.56
2022-10-12T01:23:43.961Z,87.80
2022-10-12T01:24:43.972Z,87.80
2022-10-12T01:25:43.976Z,87.61
2022-10-12T01:26:43.958Z,87.99
2022-10-12T01:27:43.936Z,87.80
2022-10-12T01:28:44.097Z,87.94
2022-10-12T01:29:43.934Z,87.52
2022-10-12T01:30:43.925Z,87.52
2022-10-12T01:31:43.943Z,87.71
2022-10-12T01:32:43.932Z,87.23
2022-10-12T01:33:43.919Z,87.42
2022-10-12T01:34:43.911Z,87.32
2022-10-12T01:35:43.898Z,87.32
2022-10-12T01:36:43.894Z,87.23
2022-10-12T01:37:44.060Z,87.32
2022-10-12T01:38:43.886Z,87.61
2022-10-12T01:39:43.881Z,87.52
2022-10-12T01:40:43.877Z,87.23
2022-10-12T01:41:43.874Z,87.04
2022-10-12T01:42:43.876Z,87.32
2022-10-12T01:43:43.873Z,87.13
2022-10-12T01:44:43.852Z,87.23
2022-10-12T01:45:43.862Z,87.61
2022-10-12T01:46:43.841Z,87.52
2022-10-12T01:47:43.839Z,87.52
2022-10-12T01:48:43.842Z,87.42
2022-10-12T01:49:43.836Z,87.42
2022-10-12T01:50:43.823Z,87.13
2022-10-12T01:51:43.825Z,87.80
2022-10-12T01:52:43.826Z,88.18
2022-10-12T01:53:43.812Z,87.90
2022-10-12T01:54:43.796Z,87.71
2022-10-12T01:55:43.789Z,87.90
2022-10-12T01:56:43.777Z,87.52
2022-10-12T01:57:43.785Z,87.71
2022-10-12T01:58:43.781Z,87.61
2022-10-12T01:59:43.783Z,87.90
2022-10-12T02:00:43.844Z,87.80
2022-10-12T02:01:43.769Z,88.28
2022-10-12T02:02:43.750Z,88.28
2022-10-12T02:03:43.761Z,88.37
2022-10-12T02:04:43.741Z,87.80
2022-10-12T02:05:43.742Z,88.09
2022-10-12T02:06:43.768Z,87.80
2022-10-12T02:07:43.726Z,87.80
2022-10-12T02:08:43.731Z,87.80
2022-10-12T02:09:43.742Z,87.99
2022-10-12T02:10:43.712Z,87.90
2022-10-12T02:11:43.708Z,87.71
2022-10-12T02:12:43.711Z,87.80
2022-10-12T02:13:43.708Z,87.90
2022-10-12T02:14:43.689Z,87.71
2022-10-12T02:15:43.693Z,87.80
2022-10-12T02:16:43.690Z,87.71
2022-10-12T02:17:43.680Z,87.71
2022-10-12T02:18:43.680Z,87.71
2022-10-12T02:19:43.663Z,87.71
2022-10-12T02:20:43.656Z,88.28
2022-10-12T02:21:43.661Z,88.09
2022-10-12T02:22:43.651Z,88.28
2022-10-12T02:23:43.653Z,88.28
2022-10-12T02:24:43.653Z,87.99
2022-10-12T02:25:43.648Z,87.80
2022-10-12T02:26:43.622Z,87.80
2022-10-12T02:27:43.633Z,87.52
2022-10-12T02:28:43.683Z,87.71
2022-10-12T02:29:43.616Z,87.90
2022-10-12T02:30:43.633Z,87.80
2022-10-12T02:31:43.628Z,87.90
2022-10-12T02:32:43.602Z,88.09
2022-10-12T02:33:43.592Z,87.52
2022-10-12T02:34:43.590Z,87.71
2022-10-12T02:35:43.586Z,87.71
2022-10-12T02:36:43.570Z,87.90
2022-10-12T02:37:43.574Z,87.90
2022-10-12T02:38:43.562Z,87.76
2022-10-12T02:39:43.559Z,87.71
2022-10-12T02:40:43.548Z,87.90
2022-10-12T02:41:43.563Z,87.76
2022-10-12T02:43:08.751Z,87.66
2022-10-12T02:43:43.534Z,87.90
2022-10-12T02:44:43.524Z,87.76
2022-10-12T02:45:43.521Z,87.90
2022-10-12T02:46:43.522Z,87.85
2022-10-12T02:47:43.514Z,87.66
2022-10-12T02:48:43.527Z,87.90
2022-10-12T02:49:43.506Z,87.85
2022-10-12T02:50:43.503Z,87.85
2022-10-12T02:51:43.496Z,87.80
2022-10-12T02:52:43.481Z,87.76
2022-10-12T02:53:43.486Z,87.85
2022-10-12T02:54:43.483Z,87.90
2022-10-12T02:55:43.471Z,87.71
2022-10-12T02:56:43.470Z,87.66
2022-10-12T02:57:43.475Z,87.76
2022-10-12T02:58:43.455Z,87.85
2022-10-12T02:59:43.490Z,87.76
2022-10-12T03:00:43.450Z,87.80
2022-10-12T03:01:43.497Z,87.80
2022-10-12T03:02:43.434Z,87.71
2022-10-12T03:03:43.447Z,87.57
2022-10-12T03:04:43.457Z,87.66
2022-10-12T03:05:43.415Z,87.76
2022-10-12T03:06:43.424Z,87.85
2022-10-12T03:07:43.399Z,87.57
2022-10-12T03:08:43.402Z,87.76
2022-10-12T03:09:43.391Z,88.04
2022-10-12T03:10:43.376Z,87.76
2022-10-12T03:11:43.384Z,88.23
2022-10-12T03:12:47.725Z,88.04
2022-10-12T03:13:43.365Z,88.04
2022-10-12T03:14:43.370Z,87.95
2022-10-12T03:15:43.367Z,87.76
2022-10-12T03:16:43.361Z,87.57
2022-10-12T03:17:43.341Z,88.04
2022-10-12T03:18:43.343Z,87.85
2022-10-12T03:19:43.341Z,88.04
2022-10-12T03:20:43.340Z,88.23
2022-10-12T03:21:43.326Z,88.42
2022-10-12T03:22:43.339Z,88.33
2022-10-12T03:23:43.336Z,88.23
2022-10-12T03:24:43.309Z,88.71
2022-10-12T03:25:43.310Z,88.13
2022-10-12T03:26:43.306Z,88.13
2022-10-12T03:27:43.311Z,88.13
2022-10-12T03:28:43.356Z,88.04
2022-10-12T03:29:43.292Z,88.23
2022-10-12T03:30:43.280Z,88.13
2022-10-12T03:31:43.267Z,88.04
2022-10-12T03:32:43.275Z,88.42
2022-10-12T03:33:43.257Z,88.52
2022-10-12T03:34:43.271Z,88.33
2022-10-12T03:35:43.255Z,87.95
2022-10-12T03:36:43.246Z,88.04
2022-10-12T03:37:43.264Z,88.04
2022-10-12T03:38:43.232Z,88.04
2022-10-12T03:39:43.222Z,88.23
2022-10-12T03:40:43.225Z,88.23
2022-10-12T03:41:43.212Z,88.04
2022-10-12T03:42:43.211Z,88.33
2022-10-12T03:43:43.250Z,88.33
2022-10-12T03:44:43.190Z,88.23
2022-10-12T03:45:43.213Z,88.04
2022-10-12T03:46:43.182Z,88.04
2022-10-12T03:47:43.185Z,88.42
2022-10-12T03:48:43.165Z,88.23
2022-10-12T03:49:43.167Z,88.23
2022-10-12T03:50:43.167Z,88.23
2022-10-12T03:51:43.168Z,87.85
2022-10-12T03:52:43.172Z,88.33
2022-10-12T03:53:45.549Z,88.33
2022-10-12T03:54:43.166Z,88.71
2022-10-12T03:55:43.136Z,88.33
2022-10-12T03:56:43.126Z,88.52
2022-10-12T03:57:43.120Z,88.61
2022-10-12T03:58:43.111Z,88.61
2022-10-12T03:59:43.122Z,88.42
2022-10-12T04:00:43.116Z,88.13
2022-10-12T04:01:43.167Z,88.04
2022-10-12T04:02:43.099Z,88.04
2022-10-12T04:03:43.087Z,87.47
2022-10-12T04:04:43.079Z,87.85
2022-10-12T04:05:43.067Z,87.85
2022-10-12T04:06:43.087Z,87.95
2022-10-12T04:07:43.073Z,87.95
2022-10-12T04:08:46.005Z,87.66
2022-10-12T04:09:43.054Z,87.95
2022-10-12T04:10:43.046Z,87.76
2022-10-12T04:11:43.039Z,87.66
2022-10-12T04:12:43.037Z,87.85
2022-10-12T04:13:43.027Z,87.76
2022-10-12T04:14:43.032Z,87.95
2022-10-12T04:15:43.023Z,87.76
2022-10-12T04:16:43.017Z,87.76
2022-10-12T04:17:43.009Z,87.76
2022-10-12T04:18:43.011Z,87.95
2022-10-12T04:19:42.995Z,88.33
2022-10-12T04:20:42.984Z,88.52
2022-10-12T04:21:42.981Z,88.61
2022-10-12T04:22:42.988Z,87.76
2022-10-12T04:23:42.974Z,87.85
2022-10-12T04:24:43.017Z,87.76
2022-10-12T04:25:42.976Z,87.95
2022-10-12T04:26:42.969Z,87.85
2022-10-12T04:27:42.952Z,87.85
2022-10-12T04:28:43.007Z,87.85
2022-10-12T04:29:42.933Z,87.76
2022-10-12T04:30:42.935Z,87.95
2022-10-12T04:31:42.935Z,87.95
2022-10-12T04:32:42.927Z,87.85
2022-10-12T04:33:42.924Z,88.04
2022-10-12T04:34:42.905Z,87.85
2022-10-12T04:35:42.906Z,87.85
2022-10-12T04:36:42.892Z,87.57
2022-10-12T04:37:42.899Z,87.85
2022-10-12T04:38:42.894Z,87.85
2022-10-12T04:39:42.883Z,87.95
2022-10-12T04:40:42.901Z,87.19
2022-10-12T04:41:42.870Z,87.28
2022-10-12T04:42:42.861Z,87.47
2022-10-12T04:43:42.878Z,87.76
2022-10-12T04:44:42.864Z,87.38
2022-10-12T04:45:42.864Z,87.38
2022-10-12T04:46:42.843Z,87.28
2022-10-12T04:47:42.857Z,87.85
2022-10-12T04:48:42.837Z,87.47
2022-10-12T04:49:42.826Z,87.85
2022-10-12T04:50:42.806Z,87.62
2022-10-12T04:51:42.808Z,87.90
2022-10-12T04:52:42.818Z,87.52
2022-10-12T04:53:42.801Z,87.62
2022-10-12T04:54:42.803Z,88.04
2022-10-12T04:55:42.811Z,88.28
2022-10-12T04:56:47.530Z,88.09
2022-10-12T04:57:42.771Z,88.38
2022-10-12T04:58:42.775Z,88.13
2022-10-12T04:59:42.765Z,88.13
2022-10-12T05:00:42.775Z,88.28
2022-10-12T05:01:42.815Z,88.19
2022-10-12T05:02:42.746Z,88.09
2022-10-12T05:03:42.761Z,87.81
2022-10-12T05:04:42.736Z,88.09
2022-10-12T05:05:42.727Z,88.04
2022-10-12T05:06:42.760Z,88.00
2022-10-12T05:07:42.714Z,88.04
2022-10-12T05:08:42.705Z,87.95
2022-10-12T05:09:42.716Z,87.76
2022-10-12T05:10:42.714Z,87.52
2022-10-12T05:11:42.688Z,87.90
2022-10-12T05:12:42.706Z,87.62
2022-10-12T05:13:42.736Z,87.52
2022-10-12T05:14:42.678Z,87.24
2022-10-12T05:15:42.679Z,87.52
2022-10-12T05:16:42.663Z,87.52
2022-10-12T05:17:42.667Z,87.71
2022-10-12T05:18:42.672Z,87.43
2022-10-12T05:19:42.682Z,87.62
2022-10-12T05:20:42.686Z,87.81
2022-10-12T05:21:42.667Z,87.90
2022-10-12T05:22:42.631Z,88.09
2022-10-12T05:23:42.638Z,87.71
2022-10-12T05:24:42.616Z,87.62
2022-10-12T05:25:42.631Z,87.90
2022-10-12T05:26:42.622Z,87.24
2022-10-12T05:27:42.618Z,87.24
2022-10-12T05:28:42.651Z,87.24
2022-10-12T05:29:42.592Z,87.14
2022-10-12T05:30:42.569Z,87.34
2022-10-12T05:31:42.578Z,87.24
2022-10-12T05:32:42.572Z,87.24
2022-10-12T05:33:42.562Z,87.43
2022-10-12T05:34:42.567Z,87.05
2022-10-12T05:35:47.306Z,87.14
2022-10-12T05:36:42.578Z,86.95
2022-10-12T05:37:42.543Z,87.24
2022-10-12T05:38:42.553Z,87.14
2022-10-12T05:39:42.539Z,87.24
2022-10-12T05:40:42.516Z,87.52
2022-10-12T05:41:42.522Z,87.34
2022-10-12T05:42:42.515Z,87.05
2022-10-12T05:43:42.496Z,86.95
2022-10-12T05:44:42.496Z,86.76
2022-10-12T05:45:42.497Z,86.95
2022-10-12T05:46:42.483Z,86.86
2022-10-12T05:47:42.479Z,86.95
2022-10-12T05:48:42.467Z,87.34
2022-10-12T05:49:42.474Z,87.62
2022-10-12T05:50:42.456Z,90.00
2022-10-12T05:51:42.462Z,94.60
2022-10-12T05:52:42.450Z,99.84
2022-10-12T05:53:42.473Z,99.99
2022-10-12T05:54:42.433Z,99.99
2022-10-12T05:55:42.434Z,99.99
2022-10-12T05:56:42.425Z,96.84
2022-10-12T05:57:42.426Z,92.94
2022-10-12T05:58:42.412Z,90.94
2022-10-12T05:59:42.413Z,88.66
2022-10-12T06:00:42.406Z,87.61
2022-10-12T06:01:42.493Z,86.71
2022-10-12T06:02:42.389Z,87.04
2022-10-12T06:03:42.391Z,86.47
2022-10-12T06:04:42.387Z,86.52
2022-10-12T06:05:42.377Z,86.52
2022-10-12T06:06:42.368Z,86.43
2022-10-12T06:07:42.354Z,86.71
2022-10-12T06:08:42.393Z,86.33
2022-10-12T06:09:42.352Z,86.43
2022-10-12T06:10:42.348Z,86.61
2022-10-12T06:11:42.352Z,86.99
2022-10-12T06:12:42.355Z,86.80
2022-10-12T06:13:42.318Z,85.95
2022-10-12T06:14:42.333Z,86.90
2022-10-12T06:15:42.315Z,87.28
2022-10-12T06:16:42.311Z,86.80
2022-10-12T06:17:42.312Z,86.80
2022-10-12T06:18:42.322Z,87.19
2022-10-12T06:19:42.286Z,87.28
2022-10-12T06:20:42.285Z,87.47
2022-10-12T06:21:42.286Z,87.38
2022-10-12T06:22:42.290Z,87.38
2022-10-12T06:23:42.275Z,87.57
2022-10-12T06:24:42.264Z,87.28
2022-10-12T06:25:42.257Z,87.57
2022-10-12T06:26:42.259Z,87.66
2022-10-12T06:27:42.245Z,87.85
2022-10-12T06:28:42.337Z,87.95
2022-10-12T06:29:42.227Z,87.85
2022-10-12T06:30:42.228Z,87.76
2022-10-12T06:31:42.303Z,87.95
2022-10-12T06:32:42.222Z,87.85
2022-10-12T06:33:42.227Z,87.76
2022-10-12T06:34:42.202Z,87.95
2022-10-12T06:35:42.204Z,87.85
2022-10-12T06:36:42.200Z,87.85
2022-10-12T06:37:49.954Z,87.76
2022-10-12T06:38:42.198Z,87.95
2022-10-12T06:39:42.182Z,87.66
2022-10-12T06:40:42.175Z,87.76
2022-10-12T06:41:42.168Z,87.76
2022-10-12T06:42:42.177Z,87.85
2022-10-12T06:43:42.163Z,88.04
2022-10-12T06:44:42.175Z,88.33
2022-10-12T06:45:42.149Z,88.33
2022-10-12T06:46:42.138Z,88.23
2022-10-12T06:47:42.144Z,87.95
2022-10-12T06:48:42.133Z,88.42
2022-10-12T06:49:42.132Z,88.42
2022-10-12T06:50:42.125Z,88.33
2022-10-12T06:51:42.111Z,88.42
2022-10-12T06:52:42.099Z,88.80
2022-10-12T06:53:42.109Z,88.42
2022-10-12T06:54:42.094Z,88.61
2022-10-12T06:55:42.092Z,88.71
2022-10-12T06:56:42.091Z,88.80
2022-10-12T06:57:42.082Z,88.52
2022-10-12T06:58:42.085Z,89.18
2022-10-12T06:59:42.070Z,89.00
2022-10-12T07:00:42.060Z,89.00
2022-10-12T07:01:42.157Z,89.09
2022-10-12T07:02:42.059Z,88.80
2022-10-12T07:03:42.053Z,88.94
2022-10-12T07:04:42.056Z,88.94
2022-10-12T07:05:42.054Z,88.85
2022-10-12T07:06:42.043Z,89.14
2022-10-12T07:07:42.025Z,89.14
2022-10-12T07:08:42.019Z,89.04
2022-10-12T07:09:42.018Z,89.14
2022-10-12T07:10:42.009Z,89.04
2022-10-12T07:11:42.003Z,89.04
2022-10-12T07:12:41.990Z,89.04
2022-10-12T07:13:41.993Z,89.14
2022-10-12T07:14:41.996Z,88.85
2022-10-12T07:15:42.004Z,89.23
2022-10-12T07:16:41.993Z,89.14
2022-10-12T07:17:41.984Z,89.23
2022-10-12T07:18:41.982Z,89.23
2022-10-12T07:19:41.978Z,89.23
2022-10-12T07:20:42.010Z,89.14
2022-10-12T07:21:41.983Z,89.04
2022-10-12T07:22:41.959Z,89.04
2022-10-12T07:23:45.863Z,89.32
2022-10-12T07:24:41.945Z,88.56
2022-10-12T07:25:41.946Z,88.89
2022-10-12T07:26:41.936Z,88.46
2022-10-12T07:27:42.170Z,89.08
2022-10-12T07:28:41.993Z,89.08
2022-10-12T07:29:41.939Z,89.08
2022-10-12T07:30:41.927Z,89.47
2022-10-12T07:31:41.943Z,89.41
2022-10-12T07:32:41.952Z,89.13
2022-10-12T07:33:41.897Z,88.60
2022-10-12T07:34:41.891Z,87.02
2022-10-12T07:36:10.241Z,86.45
2022-10-12T07:36:58.544Z,84.88
2022-10-12T07:37:42.331Z,83.44
2022-10-12T07:38:41.902Z,83.11
2022-10-12T07:39:41.886Z,80.28
2022-10-12T07:40:41.876Z,79.17
2022-10-12T07:41:41.881Z,78.26
2022-10-12T07:43:05.424Z,76.64
2022-10-12T07:43:41.916Z,74.38
2022-10-12T07:44:41.882Z,73.04
2022-10-12T07:45:41.887Z,71.55
2022-10-12T07:46:41.899Z,70.53
2022-10-12T07:47:41.913Z,70.05
2022-10-12T07:48:47.237Z,69.23
2022-10-12T07:49:41.901Z,67.50
2022-10-12T07:50:41.909Z,66.45
2022-10-12T07:51:41.904Z,66.48
2022-10-12T07:52:41.919Z,65.81
2022-10-12T07:53:41.929Z,64.47
2022-10-12T07:54:41.955Z,63.54
2022-10-12T07:55:41.937Z,62.49
2022-10-12T07:56:41.957Z,62.33
2022-10-12T07:57:41.973Z,62.13
2022-10-12T07:58:41.967Z,61.46
2022-10-12T07:59:41.981Z,61.94
2022-10-12T08:00:42.004Z,62.26
2022-10-12T08:01:42.089Z,61.40
2022-10-12T08:02:42.014Z,61.33
2022-10-12T08:03:42.020Z,60.75
2022-10-12T08:04:42.027Z,60.57
2022-10-12T08:05:42.037Z,59.70
2022-10-12T08:06:42.042Z,58.36
2022-10-12T08:07:42.248Z,57.68
2022-10-12T08:08:42.058Z,58.07
2022-10-12T08:09:42.084Z,58.17
2022-10-12T08:10:42.083Z,57.33
2022-10-12T08:11:42.104Z,56.76
2022-10-12T08:12:42.101Z,56.15
2022-10-12T08:13:42.137Z,56.53
2022-10-12T08:14:42.131Z,57.01
2022-10-12T08:15:42.140Z,57.23
2022-10-12T08:16:42.150Z,57.14
2022-10-12T08:17:42.160Z,57.04
2022-10-12T08:18:42.175Z,56.66
2022-10-12T08:19:42.181Z,55.89
2022-10-12T08:20:42.185Z,56.27
2022-10-12T08:21:42.214Z,56.27
2022-10-12T08:22:42.218Z,56.37
2022-10-12T08:23:42.228Z,56.18
2022-10-12T08:24:42.259Z,56.46
2022-10-12T08:25:42.256Z,56.63
2022-10-12T08:26:42.255Z,57.30
2022-10-12T08:27:42.288Z,57.30
2022-10-12T08:28:42.330Z,57.68
2022-10-12T08:29:42.367Z,57.85
2022-10-12T08:30:42.316Z,58.33
2022-10-12T08:31:42.331Z,59.45
2022-10-12T08:32:42.324Z,59.64
2022-10-12T08:33:42.348Z,60.47
2022-10-12T08:34:42.373Z,60.57
2022-10-12T08:35:42.366Z,60.67
2022-10-12T08:36:42.369Z,61.15
2022-10-12T08:37:42.380Z,62.07
2022-10-12T08:38:42.403Z,61.88
2022-10-12T08:39:42.421Z,62.36
2022-10-12T08:40:42.423Z,62.46
2022-10-12T08:41:42.477Z,62.74
2022-10-12T08:42:42.435Z,62.46
2022-10-12T08:43:42.438Z,62.55
2022-10-12T08:44:42.465Z,62.93
2022-10-12T08:45:42.519Z,62.46
2022-10-12T08:46:42.519Z,62.84
2022-10-12T08:47:42.524Z,62.62
2022-10-12T08:48:42.586Z,62.81
2022-10-12T08:49:45.178Z,63.19
2022-10-12T08:50:42.500Z,63.48
2022-10-12T08:51:42.491Z,63.67
2022-10-12T08:52:42.574Z,63.96
2022-10-12T08:53:42.545Z,64.05
2022-10-12T08:54:42.527Z,63.86
2022-10-12T08:55:42.536Z,64.72
2022-10-12T08:56:42.574Z,64.82
2022-10-12T08:57:46.362Z,65.08
2022-10-12T08:58:42.551Z,65.17
2022-10-12T08:59:42.545Z,66.22
2022-10-12T09:00:42.550Z,66.13
2022-10-12T09:01:42.643Z,66.22
2022-10-12T09:02:42.575Z,66.41
2022-10-12T09:03:42.557Z,66.41
2022-10-12T09:04:42.569Z,66.03
2022-10-12T09:05:42.587Z,66.41
2022-10-12T09:06:42.570Z,66.13
2022-10-12T09:07:42.581Z,66.13
2022-10-12T09:08:42.577Z,66.61
2022-10-12T09:09:44.021Z,66.47
2022-10-12T09:10:42.586Z,65.90
2022-10-12T09:11:42.584Z,65.90
2022-10-12T09:12:42.575Z,66.47
2022-10-12T09:13:42.570Z,66.67
2022-10-12T09:14:42.571Z,66.96
2022-10-12T09:15:42.573Z,66.47
2022-10-12T09:16:42.572Z,66.47
2022-10-12T09:17:42.580Z,67.24
2022-10-12T09:18:42.607Z,67.43
2022-10-12T09:19:42.585Z,68.20
2022-10-12T09:20:42.583Z,67.82
2022-10-12T09:21:42.592Z,68.29
2022-10-12T09:22:42.580Z,68.68
2022-10-12T09:23:42.592Z,67.47
2022-10-12T09:24:42.601Z,66.61
2022-10-12T09:25:42.592Z,66.67
2022-10-12T09:26:42.604Z,66.67
2022-10-12T09:27:45.221Z,66.41
2022-10-12T09:28:42.671Z,66.13
2022-10-12T09:29:42.573Z,66.22
2022-10-12T09:30:42.576Z,65.71
2022-10-12T09:31:42.580Z,65.74
2022-10-12T09:32:42.597Z,65.74
2022-10-12T09:33:42.584Z,65.45
2022-10-12T09:34:42.590Z,64.98
2022-10-12T09:35:42.591Z,64.98
2022-10-12T09:36:42.569Z,65.84
2022-10-12T09:37:42.577Z,66.03
2022-10-12T09:38:42.586Z,66.13
2022-10-12T09:39:42.583Z,65.94
2022-10-12T09:40:42.595Z,65.94
2022-10-12T09:41:42.606Z,66.22
2022-10-12T09:42:42.578Z,65.36
2022-10-12T09:43:42.584Z,65.17
2022-10-12T09:44:42.583Z,65.08
2022-10-12T09:45:42.599Z,64.98
2022-10-12T09:46:42.584Z,65.45
2022-10-12T09:47:42.572Z,65.84
2022-10-12T09:48:47.715Z,66.35
2022-10-12T09:49:42.580Z,66.06
2022-10-12T09:50:42.568Z,65.30
2022-10-12T09:51:42.586Z,65.58
2022-10-12T09:52:42.592Z,65.88
2022-10-12T09:53:42.572Z,66.35
2022-10-12T09:54:42.628Z,66.35
2022-10-12T09:55:42.559Z,65.78
2022-10-12T09:56:42.557Z,65.97
2022-10-12T09:57:42.565Z,66.35
2022-10-12T09:58:42.570Z,66.45
2022-10-12T09:59:42.560Z,65.78
2022-10-12T10:00:42.652Z,65.49
2022-10-12T10:01:42.611Z,64.25
2022-10-12T10:02:42.571Z,64.34
2022-10-12T10:03:42.563Z,64.34
2022-10-12T10:04:42.569Z,64.63
2022-10-12T10:05:42.584Z,64.25
2022-10-12T10:06:42.567Z,64.34
2022-10-12T10:07:42.564Z,64.34
2022-10-12T10:08:42.547Z,64.31
2022-10-12T10:09:42.545Z,63.73
2022-10-12T10:10:42.552Z,63.35
2022-10-12T10:11:42.555Z,63.06
2022-10-12T10:12:42.545Z,64.40
2022-10-12T10:13:42.574Z,64.31
2022-10-12T10:14:42.556Z,63.93
2022-10-12T10:15:42.545Z,64.59
2022-10-12T10:16:42.553Z,64.69
2022-10-12T10:17:42.539Z,64.31
2022-10-12T10:18:42.545Z,64.02
2022-10-12T10:19:42.568Z,64.79
2022-10-12T10:20:42.576Z,64.88
2022-10-12T10:21:42.537Z,64.98
2022-10-12T10:22:42.550Z,64.69
2022-10-12T10:23:42.546Z,64.69
2022-10-12T10:24:42.533Z,64.69
2022-10-12T10:25:42.530Z,64.22
2022-10-12T10:26:42.548Z,64.28
2022-10-12T10:27:42.528Z,64.37
2022-10-12T10:28:42.563Z,64.09
2022-10-12T10:29:42.528Z,64.37
2022-10-12T10:30:42.989Z,64.66
2022-10-12T10:31:42.535Z,64.75
2022-10-12T10:32:42.553Z,64.75
2022-10-12T10:33:42.523Z,64.75
2022-10-12T10:34:42.546Z,64.56
2022-10-12T10:35:44.857Z,64.95
2022-10-12T10:36:42.520Z,65.23
2022-10-12T10:37:42.518Z,64.85
2022-10-12T10:38:42.512Z,64.66
2022-10-12T10:39:42.518Z,65.42
2022-10-12T10:40:42.544Z,65.42
2022-10-12T10:41:42.530Z,65.90
2022-10-12T10:42:42.547Z,65.90
2022-10-12T10:43:42.514Z,65.90
2022-10-12T10:45:42.577Z,65.90
2022-10-12T10:46:42.501Z,66.06
2022-10-12T10:47:42.516Z,66.35
2022-10-12T10:48:42.498Z,65.87
2022-10-12T10:49:44.418Z,65.52
2022-10-12T10:50:42.502Z,65.20
2022-10-12T10:51:42.504Z,65.39
2022-10-12T10:52:42.499Z,65.30
2022-10-12T10:53:42.510Z,65.39
2022-10-12T10:54:42.492Z,65.20
2022-10-12T10:55:42.558Z,65.39
2022-10-12T10:56:42.493Z,64.91
2022-10-12T10:57:42.531Z,64.62
2022-10-12T10:58:42.490Z,64.91
2022-10-12T10:59:42.521Z,64.82
2022-10-12T11:00:42.891Z,64.91
2022-10-12T11:01:42.535Z,65.20
2022-10-12T11:02:42.476Z,65.48
2022-10-12T11:03:42.488Z,65.87
2022-10-12T11:04:42.487Z,65.77
2022-10-12T11:05:42.479Z,65.77
2022-10-12T11:06:42.475Z,65.68
2022-10-12T11:07:42.480Z,65.77
2022-10-12T11:08:42.471Z,65.52
2022-10-12T11:09:42.476Z,65.87
2022-10-12T11:10:42.494Z,66.44
2022-10-12T11:11:42.464Z,65.77
2022-10-12T11:12:42.476Z,65.01
2022-10-12T11:13:42.464Z,65.20
2022-10-12T11:14:42.458Z,65.39
2022-10-12T11:15:42.465Z,65.01
2022-10-12T11:16:42.457Z,64.82
2022-10-12T11:17:42.464Z,64.62
2022-10-12T11:18:42.460Z,64.82
2022-10-12T11:19:42.472Z,64.82
2022-10-12T11:20:42.462Z,64.75
2022-10-12T11:21:42.509Z,64.75
2022-10-12T11:22:42.458Z,64.85
2022-10-12T11:23:42.444Z,64.66
2022-10-12T11:24:42.462Z,65.04
2022-10-12T11:25:46.818Z,64.62
2022-10-12T11:26:42.443Z,63.99
2022-10-12T11:27:42.454Z,63.96
2022-10-12T11:28:42.490Z,64.25
2022-10-12T11:29:42.436Z,64.37
2022-10-12T11:30:42.446Z,63.70
2022-10-12T11:31:42.427Z,63.32
2022-10-12T11:32:42.448Z,63.03
2022-10-12T11:33:42.426Z,63.13
2022-10-12T11:34:42.464Z,63.03
2022-10-12T11:35:42.447Z,63.23
2022-10-12T11:36:55.884Z,63.13
2022-10-12T11:37:42.429Z,63.51
2022-10-12T11:38:42.427Z,63.03
2022-10-12T11:39:42.438Z,63.23
2022-10-12T11:41:52.479Z,63.23
2022-10-12T11:42:43.686Z,63.03
2022-10-12T11:43:42.418Z,62.74
2022-10-12T11:44:42.420Z,62.55
2022-10-12T11:45:42.418Z,62.08
2022-10-12T11:46:42.424Z,61.98
2022-10-12T11:47:42.449Z,61.69
2022-10-12T11:48:42.405Z,61.69
2022-10-12T11:49:42.407Z,61.69
2022-10-12T11:50:42.406Z,61.60
2022-10-12T11:51:42.432Z,61.98
2022-10-12T11:52:42.402Z,61.88
2022-10-12T11:53:42.417Z,62.27
2022-10-12T11:54:42.388Z,62.08
2022-10-12T11:55:42.393Z,62.43
2022-10-12T11:56:42.401Z,61.95
2022-10-12T11:57:42.396Z,61.95
2022-10-12T11:58:59.974Z,62.14
2022-10-12T11:59:42.416Z,62.62
2022-10-12T12:00:42.385Z,63.19
2022-10-12T12:01:42.396Z,63.23
2022-10-12T12:02:42.374Z,63.10
2022-10-12T12:03:42.397Z,63.00
2022-10-12T12:04:43.712Z,62.65
2022-10-12T12:05:42.391Z,62.65
2022-10-12T12:06:42.372Z,63.03
2022-10-12T12:07:42.386Z,63.23
2022-10-12T12:08:42.389Z,62.37
2022-10-12T12:09:45.275Z,62.27
2022-10-12T12:10:42.363Z,62.46
2022-10-12T12:11:42.387Z,61.98
2022-10-12T12:12:42.360Z,62.08
2022-10-12T12:13:42.366Z,62.08
2022-10-12T12:14:42.800Z,61.79
2022-10-12T12:15:42.367Z,61.12
2022-10-12T12:16:42.366Z,61.12
2022-10-12T12:17:42.351Z,61.22
2022-10-12T12:18:42.365Z,60.93
2022-10-12T12:19:42.881Z,60.64
2022-10-12T12:20:42.347Z,60.64
2022-10-12T12:21:42.346Z,61.02
2022-10-12T12:22:42.350Z,60.35
2022-10-12T12:23:42.350Z,59.97
2022-10-12T12:24:42.412Z,60.16
2022-10-12T12:25:42.355Z,60.16
2022-10-12T12:26:42.348Z,60.45
2022-10-12T12:27:42.357Z,60.64
2022-10-12T12:28:42.418Z,60.83
2022-10-12T12:29:42.649Z,60.45
2022-10-12T12:30:42.360Z,60.64
2022-10-12T12:31:42.337Z,60.93
2022-10-12T12:32:42.326Z,60.83
2022-10-12T12:33:42.330Z,61.22
2022-10-12T12:34:42.616Z,60.64
2022-10-12T12:35:42.329Z,60.35
2022-10-12T12:36:42.326Z,60.16
2022-10-12T12:37:42.325Z,59.97
2022-10-12T12:38:42.330Z,60.35
2022-10-12T12:39:42.639Z,60.06
2022-10-12T12:40:42.329Z,59.97
2022-10-12T12:41:42.326Z,59.88
2022-10-12T12:42:42.329Z,59.97
2022-10-12T12:43:42.312Z,59.88
2022-10-12T12:44:42.414Z,59.40
2022-10-12T12:45:42.309Z,59.88
2022-10-12T12:46:42.310Z,60.16
2022-10-12T12:47:46.314Z,59.69
2022-10-12T12:48:42.323Z,59.59
2022-10-12T12:49:42.486Z,59.69
2022-10-12T12:50:42.318Z,59.30
2022-10-12T12:51:42.316Z,59.40
2022-10-12T12:52:42.317Z,59.30
2022-10-12T12:53:42.318Z,59.59
2022-10-12T12:54:42.433Z,59.59